createdAt,value
2022-12-23T00:00:48.185Z,102123.45
2022-12-23T00:03:07.692Z,102118.45
2022-12-23T00:05:21.133Z,102113.11
2022-12-23T00:07:34.466Z,102115.98
2022-12-23T00:09:48.586Z,102110.07
2022-12-23T00:12:19.037Z,102101.79
2022-12-23T00:14:50.771Z,102106.30
2022-12-23T00:17:12.954Z,102099.97
2022-12-23T00:19:36.557Z,102094.11
2022-12-23T00:21:49.917Z,102096.40
2022-12-23T00:24:04.170Z,102094.46
2022-12-23T00:26:20.280Z,102090.36
2022-12-23T00:28:35.505Z,102090.16
2022-12-23T00:30:54.751Z,102084.75
2022-12-23T00:33:08.538Z,102096.52
2022-12-23T00:35:22.174Z,102089.44
2022-12-23T00:37:38.543Z,102092.52
2022-12-23T00:40:09.745Z,102074.23
2022-12-23T00:42:39.981Z,102081.86
2022-12-23T00:44:54.079Z,102075.14
2022-12-23T00:47:30.664Z,102073.80
2022-12-23T00:49:46.785Z,102072.85
2022-12-23T00:52:00.185Z,102079.36
2022-12-23T00:54:14.562Z,102065.64
2022-12-23T00:56:28.178Z,102079.73
2022-12-23T00:58:41.737Z,102070.67
2022-12-23T01:01:28.314Z,102077.39
2022-12-23T01:04:00.695Z,102060.61
2022-12-23T01:06:14.150Z,102064.98
2022-12-23T01:08:27.716Z,102059.25
2022-12-23T01:10:43.513Z,102057.17
2022-12-23T01:12:56.912Z,102054.95
2022-12-23T01:15:11.413Z,102049.84
2022-12-23T01:17:24.697Z,102052.09
2022-12-23T01:19:39.490Z,102036.98
2022-12-23T01:21:52.900Z,102042.46
2022-12-23T01:24:08.071Z,102037.27
2022-12-23T01:26:23.170Z,102033.62
2022-12-23T01:28:38.001Z,102036.81
2022-12-23T01:30:51.401Z,102038.41
2022-12-23T01:33:05.874Z,102027.48
2022-12-23T01:35:19.513Z,102019.40
2022-12-23T01:37:32.836Z,102020.39
2022-12-23T01:39:46.089Z,102020.52
2022-12-23T01:42:19.090Z,102016.87
2022-12-23T01:44:58.978Z,102016.50
2022-12-23T01:47:16.451Z,102013.48
2022-12-23T01:49:31.615Z,102014.21
2022-12-23T01:51:45.276Z,102001.20
2022-12-23T01:54:02.158Z,102005.30
2022-12-23T01:56:21.036Z,101998.34
2022-12-23T01:58:38.854Z,101991.45
2022-12-23T02:01:08.616Z,101995.91
2022-12-23T02:03:39.046Z,101985.52
2022-12-23T02:06:16.678Z,101984.27
2022-12-23T02:08:49.294Z,101975.52
2022-12-23T02:11:28.110Z,101970.36
2022-12-23T02:14:09.512Z,101961.96
2022-12-23T02:16:25.155Z,101948.55
2022-12-23T02:18:58.107Z,101959.64
2022-12-23T02:21:34.124Z,101955.41
2022-12-23T02:24:19.667Z,101956.80
2022-12-23T02:26:59.324Z,101957.14
2022-12-23T02:29:39.751Z,101958.60
2022-12-23T02:32:01.319Z,101954.77
2022-12-23T02:34:17.177Z,101954.15
2022-12-23T02:36:41.982Z,101957.02
2022-12-23T02:39:05.494Z,101952.10
2022-12-23T02:41:25.373Z,101950.09
2022-12-23T02:43:45.376Z,101942.70
2022-12-23T02:46:03.928Z,101936.85
2022-12-23T02:48:22.066Z,101942.79
2022-12-23T02:50:38.353Z,101947.79
2022-12-23T02:52:55.184Z,101933.30
2022-12-23T02:55:13.442Z,101941.73
2022-12-23T02:57:32.603Z,101929.20
2022-12-23T02:59:49.862Z,101930.71
2022-12-23T03:02:05.173Z,101919.98
2022-12-23T03:04:19.935Z,101919.65
2022-12-23T03:06:36.333Z,101918.79
2022-12-23T03:08:50.747Z,101927.92
2022-12-23T03:11:10.933Z,101918.52
2022-12-23T03:13:33.733Z,101920.91
2022-12-23T03:15:55.401Z,101911.73
2022-12-23T03:18:15.212Z,101911.70
2022-12-23T03:20:33.969Z,101903.10
2022-12-23T03:22:55.186Z,101904.20
2022-12-23T03:25:15.408Z,101901.09
2022-12-23T03:27:34.204Z,101890.92
2022-12-23T03:29:54.780Z,101899.65
2022-12-23T03:32:10.607Z,101892.60
2022-12-23T03:34:29.510Z,101894.41
2022-12-23T03:36:46.257Z,101887.81
2022-12-23T03:39:01.246Z,101891.87
2022-12-23T03:41:20.053Z,101889.90
2022-12-23T03:43:37.260Z,101884.91
2022-12-23T03:45:55.903Z,101880.84
2022-12-23T03:48:15.121Z,101878.92
2022-12-23T03:50:30.502Z,101874.98
2022-12-23T03:52:51.048Z,101875.00
2022-12-23T03:55:08.030Z,101877.00
2022-12-23T03:57:23.491Z,101880.64
2022-12-23T03:59:39.707Z,101876.18
2022-12-23T04:02:03.635Z,101871.52
2022-12-23T04:04:24.207Z,101860.48
2022-12-23T04:06:45.238Z,101864.89
2022-12-23T04:09:00.631Z,101869.05
2022-12-23T04:11:15.164Z,101862.00
2022-12-23T04:13:29.843Z,101871.09
2022-12-23T04:15:45.061Z,101872.45
2022-12-23T04:18:00.373Z,101865.29
2022-12-23T04:20:15.634Z,101862.09
2022-12-23T04:22:28.865Z,101845.20
2022-12-23T04:24:42.222Z,101844.49
2022-12-23T04:26:57.653Z,101849.39
2022-12-23T04:29:10.819Z,101842.40
2022-12-23T04:31:25.504Z,101839.81
2022-12-23T04:33:40.309Z,101844.08
2022-12-23T04:35:52.970Z,101837.45
2022-12-23T04:38:06.276Z,101842.63
2022-12-23T04:40:19.589Z,101848.40
2022-12-23T04:42:34.179Z,101860.02
2022-12-23T04:44:47.989Z,101850.77
2022-12-23T04:47:01.873Z,101847.30
2022-12-23T04:49:15.103Z,101850.75
2022-12-23T04:51:28.992Z,101847.40
2022-12-23T04:53:44.738Z,101853.27
2022-12-23T04:55:58.344Z,101847.77
2022-12-23T04:58:11.913Z,101844.02
2022-12-23T05:00:26.216Z,101841.30
2022-12-23T05:02:40.511Z,101846.71
2022-12-23T05:04:54.482Z,101859.23
2022-12-23T05:07:10.168Z,101854.08
2022-12-23T05:09:24.921Z,101856.08
2022-12-23T05:11:42.406Z,101854.11
2022-12-23T05:13:55.526Z,101848.05
2022-12-23T05:16:10.576Z,101837.83
2022-12-23T05:18:24.641Z,101833.49
2022-12-23T05:20:38.541Z,101838.77
2022-12-23T05:22:51.796Z,101839.06
2022-12-23T05:25:04.731Z,101839.55
2022-12-23T05:27:19.262Z,101838.61
2022-12-23T05:29:33.856Z,101837.05
2022-12-23T05:31:47.123Z,101835.91
2022-12-23T05:34:06.040Z,101836.56
2022-12-23T05:36:20.675Z,101837.02
2022-12-23T05:38:35.039Z,101834.08
2022-12-23T05:40:48.460Z,101843.10
2022-12-23T05:43:03.043Z,101834.83
2022-12-23T05:45:16.572Z,101840.89
2022-12-23T05:47:30.068Z,101839.61
2022-12-23T05:49:43.344Z,101824.48
2022-12-23T05:51:57.167Z,101823.95
2022-12-23T05:54:10.499Z,101821.86
2022-12-23T05:56:25.418Z,101823.10
2022-12-23T05:58:38.812Z,101821.52
2022-12-23T06:00:53.304Z,101813.90
2022-12-23T06:03:07.807Z,101807.89
2022-12-23T06:05:21.200Z,101812.47
2022-12-23T06:07:35.574Z,101806.83
2022-12-23T06:09:48.882Z,101794.89
2022-12-23T06:12:04.224Z,101801.37
2022-12-23T06:14:17.650Z,101790.48
2022-12-23T06:16:30.943Z,101793.91
2022-12-23T06:18:43.729Z,101786.79
2022-12-23T06:20:57.535Z,101784.66
2022-12-23T06:23:11.483Z,101784.09
2022-12-23T06:25:24.736Z,101788.06
2022-12-23T06:27:38.838Z,101781.35
2022-12-23T06:29:53.833Z,101790.52
2022-12-23T06:32:07.091Z,101781.96
2022-12-23T06:34:20.889Z,101789.58
2022-12-23T06:36:35.340Z,101787.98
2022-12-23T06:38:48.212Z,101797.72
2022-12-23T06:41:02.013Z,101791.66
2022-12-23T06:43:15.774Z,101783.02
2022-12-23T06:45:29.808Z,101777.95
2022-12-23T06:47:44.056Z,101770.54
2022-12-23T06:49:58.329Z,101780.95
2022-12-23T06:52:11.328Z,101770.31
2022-12-23T06:54:23.817Z,101773.01
2022-12-23T06:56:36.932Z,101776.44
2022-12-23T06:58:50.765Z,101768.98
2022-12-23T07:01:04.330Z,101768.00
2022-12-23T07:03:18.434Z,101765.70
2022-12-23T07:05:36.936Z,101764.33
2022-12-23T07:07:51.104Z,101762.14
2022-12-23T07:10:05.366Z,101761.09
2022-12-23T07:12:18.423Z,101766.16
2022-12-23T07:14:32.963Z,101755.86
2022-12-23T07:16:47.507Z,101757.82
2022-12-23T07:19:00.685Z,101758.71
2022-12-23T07:21:22.905Z,101757.20
2022-12-23T07:23:40.532Z,101756.19
2022-12-23T07:25:56.992Z,101758.07
2022-12-23T07:28:10.386Z,101755.81
2022-12-23T07:30:23.809Z,101757.04
2022-12-23T07:32:36.947Z,101745.98
2022-12-23T07:34:49.844Z,101747.50
2022-12-23T07:37:03.229Z,101750.70
2022-12-23T07:39:16.249Z,101743.25
2022-12-23T07:41:30.557Z,101742.06
2022-12-23T07:43:47.091Z,101732.73
2022-12-23T07:46:01.194Z,101731.21
2022-12-23T07:48:14.626Z,101719.64
2022-12-23T07:50:29.046Z,101715.74
2022-12-23T07:52:42.687Z,101715.34
2022-12-23T07:54:55.873Z,101697.92
2022-12-23T07:57:10.215Z,101696.27
2022-12-23T07:59:24.763Z,101697.70
2022-12-23T08:01:38.670Z,101692.34
2022-12-23T08:03:52.448Z,101693.77
2022-12-23T08:06:10.789Z,101695.07
2022-12-23T08:08:23.742Z,101688.24
2022-12-23T08:10:40.285Z,101685.38
2022-12-23T08:12:57.701Z,101681.00
2022-12-23T08:15:12.647Z,101667.62
2022-12-23T08:17:29.104Z,101672.71
2022-12-23T08:19:42.103Z,101655.38
2022-12-23T08:21:55.331Z,101650.73
2022-12-23T08:24:09.046Z,101660.21
2022-12-23T08:26:23.935Z,101648.42
2022-12-23T08:28:38.273Z,101646.38
2022-12-23T08:30:52.159Z,101644.52
2022-12-23T08:33:05.255Z,101635.23
2022-12-23T08:35:18.455Z,101626.11
2022-12-23T08:37:32.894Z,101626.33
2022-12-23T08:39:46.883Z,101619.66
2022-12-23T08:42:00.299Z,101609.23
2022-12-23T08:44:14.724Z,101601.16
2022-12-23T08:46:29.568Z,101596.54
2022-12-23T08:48:48.907Z,101588.73
2022-12-23T08:51:05.551Z,101591.17
2022-12-23T08:53:19.692Z,101586.00
2022-12-23T08:55:34.027Z,101594.90
2022-12-23T08:57:47.722Z,101588.18
2022-12-23T09:00:01.834Z,101595.86
2022-12-23T09:02:15.901Z,101586.08
2022-12-23T09:04:29.827Z,101579.20
2022-12-23T09:06:44.116Z,101580.96
2022-12-23T09:08:58.090Z,101579.52
2022-12-23T09:11:14.954Z,101580.41
2022-12-23T09:13:34.810Z,101575.33
2022-12-23T09:15:50.197Z,101567.86
2022-12-23T09:18:03.486Z,101567.77
2022-12-23T09:20:18.069Z,101568.02
2022-12-23T09:22:31.993Z,101571.86
2022-12-23T09:24:45.111Z,101571.61
2022-12-23T09:26:58.904Z,101588.59
2022-12-23T09:29:13.532Z,101580.38
2022-12-23T09:31:32.653Z,101580.17
2022-12-23T09:33:53.133Z,101582.21
2022-12-23T09:36:08.918Z,101589.51
2022-12-23T09:38:22.525Z,101574.98
2022-12-23T09:40:37.543Z,101580.35
2022-12-23T09:43:07.783Z,101579.24
2022-12-23T09:45:40.784Z,101566.34
2022-12-23T09:47:58.431Z,101551.05
2022-12-23T09:50:22.817Z,101548.64
2022-12-23T09:52:49.787Z,101554.38
2022-12-23T09:55:03.844Z,101539.61
2022-12-23T09:57:25.242Z,101534.14
2022-12-23T09:59:54.478Z,101544.77
2022-12-23T10:02:19.676Z,101538.88
2022-12-23T10:04:46.066Z,101544.91
2022-12-23T10:07:12.979Z,101553.35
2022-12-23T10:09:26.469Z,101559.50
2022-12-23T10:11:44.745Z,101549.19
2022-12-23T10:14:03.801Z,101540.39
2022-12-23T10:16:22.951Z,101533.23
2022-12-23T10:18:45.683Z,101525.90
2022-12-23T10:21:04.722Z,101519.09
2022-12-23T10:23:27.189Z,101531.61
2022-12-23T10:25:40.637Z,101530.55
2022-12-23T10:27:54.578Z,101532.80
2022-12-23T10:30:34.312Z,101541.19
2022-12-23T10:33:01.987Z,101540.41
2022-12-23T10:35:25.930Z,101529.38
2022-12-23T10:37:45.187Z,101542.75
2022-12-23T10:40:06.948Z,101532.39
2022-12-23T10:42:29.050Z,101537.80
2022-12-23T10:44:49.465Z,101544.66
2022-12-23T10:47:11.686Z,101543.10
2022-12-23T10:49:24.685Z,101538.56
2022-12-23T10:51:49.653Z,101539.65
2022-12-23T10:54:09.248Z,101537.41
2022-12-23T10:56:24.250Z,101531.89
2022-12-23T10:58:38.809Z,101533.20
2022-12-23T11:00:56.663Z,101523.17
2022-12-23T11:03:18.598Z,101520.52
2022-12-23T11:05:33.782Z,101526.45
2022-12-23T11:07:49.245Z,101509.75
2022-12-23T11:10:05.827Z,101507.03
2022-12-23T11:12:25.380Z,101504.22
2022-12-23T11:14:42.702Z,101494.21
2022-12-23T11:16:56.826Z,101495.88
2022-12-23T11:19:18.254Z,101487.72
2022-12-23T11:21:32.392Z,101483.02
2022-12-23T11:23:45.576Z,101488.00
2022-12-23T11:26:07.066Z,101480.83
2022-12-23T11:28:23.348Z,101487.96
2022-12-23T11:30:39.579Z,101484.09
2022-12-23T11:32:54.169Z,101496.84
2022-12-23T11:35:08.042Z,101493.13
2022-12-23T11:37:38.618Z,101507.43
2022-12-23T11:39:52.673Z,101506.13
2022-12-23T11:42:15.764Z,101501.76
2022-12-23T11:44:31.963Z,101489.02
2022-12-23T11:46:45.976Z,101499.58
2022-12-23T11:49:10.841Z,101483.85
2022-12-23T11:51:31.064Z,101469.41
2022-12-23T11:53:48.387Z,101477.97
2022-12-23T11:56:07.966Z,101482.27
2022-12-23T11:58:26.013Z,101485.55
2022-12-23T12:00:43.756Z,101482.58
2022-12-23T12:02:58.640Z,101493.50
2022-12-23T12:05:23.026Z,101499.91
2022-12-23T12:07:38.321Z,101507.48
2022-12-23T12:09:52.501Z,101517.26
2022-12-23T12:12:10.892Z,101510.27
2022-12-23T12:14:33.172Z,101500.68
2022-12-23T12:17:01.050Z,101494.59
2022-12-23T12:19:23.850Z,101502.44
2022-12-23T12:21:41.121Z,101504.86
2022-12-23T12:24:17.022Z,101513.57
2022-12-23T12:26:34.380Z,101515.78
2022-12-23T12:28:51.329Z,101520.48
2022-12-23T12:31:09.115Z,101526.70
2022-12-23T12:33:26.660Z,101523.02
2022-12-23T12:35:45.517Z,101523.79
2022-12-23T12:38:05.820Z,101530.13
2022-12-23T12:40:36.142Z,101521.40
2022-12-23T12:42:55.243Z,101510.38
2022-12-23T12:45:21.614Z,101510.98
2022-12-23T12:48:04.438Z,101501.48
2022-12-23T12:50:19.820Z,101516.04
2022-12-23T12:52:36.623Z,101521.30
2022-12-23T12:54:53.738Z,101518.41
2022-12-23T12:57:07.683Z,101522.63
2022-12-23T12:59:25.698Z,101514.62
2022-12-23T13:01:54.830Z,101505.48
2022-12-23T13:04:39.603Z,101498.50
2022-12-23T13:07:03.919Z,101494.80
2022-12-23T13:09:31.204Z,101494.33
2022-12-23T13:11:51.836Z,101485.11
2022-12-23T13:14:17.048Z,101471.77
2022-12-23T13:16:41.608Z,101462.15
2022-12-23T13:19:02.093Z,101460.18
2022-12-23T13:21:21.308Z,101471.42
2022-12-23T13:23:44.449Z,101463.93
2022-12-23T13:26:03.076Z,101470.11
2022-12-23T13:28:30.539Z,101477.89
2022-12-23T13:30:49.792Z,101465.40
2022-12-23T13:33:21.563Z,101460.67
2022-12-23T13:35:50.362Z,101447.64
2022-12-23T13:38:11.876Z,101443.73
2022-12-23T13:40:38.920Z,101453.98
2022-12-23T13:42:57.974Z,101459.59
2022-12-23T13:45:17.461Z,101468.02
2022-12-23T13:47:39.159Z,101478.70
2022-12-23T13:50:03.217Z,101489.03
2022-12-23T13:52:20.937Z,101480.39
2022-12-23T13:54:49.543Z,101486.55
2022-12-23T13:57:09.603Z,101477.65
2022-12-23T13:59:24.003Z,101475.59
2022-12-23T14:01:53.642Z,101473.06
2022-12-23T14:04:37.647Z,101464.89
2022-12-23T14:06:51.855Z,101466.70
2022-12-23T14:09:06.573Z,101469.67
2022-12-23T14:11:22.727Z,101465.09
2022-12-23T14:13:43.817Z,101460.10
2022-12-23T14:16:06.866Z,101468.33
2022-12-23T14:18:34.164Z,101464.86
2022-12-23T14:20:54.385Z,101461.17
2022-12-23T14:23:23.546Z,101461.30
2022-12-23T14:26:02.456Z,101469.84
2022-12-23T14:28:29.208Z,101469.77
2022-12-23T14:30:46.785Z,101470.56
2022-12-23T14:33:05.011Z,101467.84
2022-12-23T14:35:32.454Z,101472.44
2022-12-23T14:38:07.936Z,101465.30
2022-12-23T14:41:03.999Z,101471.81
2022-12-23T14:43:56.069Z,101482.73
2022-12-23T14:46:31.169Z,101491.12
2022-12-23T14:49:38.856Z,101483.60
2022-12-23T14:51:53.972Z,101479.41
2022-12-23T14:54:20.226Z,101469.84
2022-12-23T14:56:48.315Z,101464.71
2022-12-23T14:59:18.561Z,101461.03
2022-12-23T15:01:40.809Z,101458.04
2022-12-23T15:04:01.534Z,101457.57
2022-12-23T15:06:25.721Z,101455.73
2022-12-23T15:08:43.524Z,101465.23
2022-12-23T15:10:59.047Z,101482.45
2022-12-23T15:13:16.312Z,101483.04
2022-12-23T15:15:31.989Z,101477.60
2022-12-23T15:17:45.150Z,101488.04
2022-12-23T15:20:06.913Z,101492.23
2022-12-23T15:22:28.274Z,101499.92
2022-12-23T15:24:47.287Z,101501.84
2022-12-23T15:27:26.069Z,101509.92
2022-12-23T15:29:36.181Z,101507.83
2022-12-23T15:31:53.971Z,101515.23
2022-12-23T15:34:17.111Z,101524.64
2022-12-23T15:36:37.286Z,101515.70
2022-12-23T15:38:50.696Z,101520.08
2022-12-23T15:41:08.482Z,101516.46
2022-12-23T15:43:26.049Z,101506.83
2022-12-23T15:45:41.521Z,101505.88
2022-12-23T15:47:55.469Z,101510.67
2022-12-23T15:50:16.524Z,101518.55
2022-12-23T15:52:29.762Z,101514.34
2022-12-23T15:54:47.763Z,101506.06
2022-12-23T15:57:03.916Z,101505.17
2022-12-23T15:59:27.878Z,101505.45
2022-12-23T16:01:45.835Z,101514.27
2022-12-23T16:04:01.480Z,101509.11
2022-12-23T16:06:20.949Z,101513.20
2022-12-23T16:08:42.008Z,101511.38
2022-12-23T16:11:08.118Z,101514.08
2022-12-23T16:13:24.126Z,101521.17
2022-12-23T16:15:38.171Z,101529.48
2022-12-23T16:17:52.069Z,101522.38
2022-12-23T16:20:29.403Z,101524.00
2022-12-23T16:22:43.952Z,101524.36
2022-12-23T16:25:03.361Z,101525.17
2022-12-23T16:27:22.533Z,101530.91
2022-12-23T16:29:36.696Z,101534.66
2022-12-23T16:31:54.440Z,101534.31
2022-12-23T16:34:16.336Z,101538.20
2022-12-23T16:36:40.022Z,101549.69
2022-12-23T16:38:56.567Z,101545.95
2022-12-23T16:41:09.868Z,101554.52
2022-12-23T16:43:25.024Z,101571.52
2022-12-23T16:45:40.075Z,101561.75
2022-12-23T16:47:55.563Z,101561.83
2022-12-23T16:50:12.034Z,101566.86
2022-12-23T16:52:26.058Z,101573.65
2022-12-23T16:54:40.151Z,101574.04
2022-12-23T16:56:54.303Z,101573.42
2022-12-23T16:59:08.356Z,101583.23
2022-12-23T17:01:25.535Z,101573.77
2022-12-23T17:03:38.684Z,101583.33
2022-12-23T17:05:53.445Z,101588.23
2022-12-23T17:08:07.703Z,101592.73
2022-12-23T17:10:24.637Z,101594.61
2022-12-23T17:12:38.748Z,101591.48
2022-12-23T17:14:52.596Z,101604.96
2022-12-23T17:17:12.463Z,101619.42
2022-12-23T17:19:29.203Z,101612.48
2022-12-23T17:21:45.379Z,101616.70
2022-12-23T17:24:06.068Z,101635.23
2022-12-23T17:26:19.125Z,101648.55
2022-12-23T17:28:35.662Z,101650.59
2022-12-23T17:30:48.856Z,101662.27
2022-12-23T17:33:03.444Z,101659.04
2022-12-23T17:35:21.073Z,101653.02
2022-12-23T17:37:34.724Z,101646.27
2022-12-23T17:39:49.952Z,101660.89
2022-12-23T17:42:02.954Z,101679.86
2022-12-23T17:44:20.021Z,101682.63
2022-12-23T17:46:33.635Z,101663.33
2022-12-23T17:48:48.066Z,101672.26
2022-12-23T17:51:02.073Z,101679.08
2022-12-23T17:53:18.367Z,101689.27
2022-12-23T17:55:32.392Z,101700.61
2022-12-23T17:57:46.389Z,101706.36
2022-12-23T17:59:59.765Z,101712.91
2022-12-23T18:02:23.860Z,101715.66
2022-12-23T18:04:37.982Z,101721.46
2022-12-23T18:06:50.974Z,101720.44
2022-12-23T18:09:04.603Z,101723.59
2022-12-23T18:11:24.572Z,101723.04
2022-12-23T18:13:38.320Z,101716.06
2022-12-23T18:15:53.678Z,101722.50
2022-12-23T18:18:12.887Z,101737.02
2022-12-23T18:20:27.545Z,101742.91
2022-12-23T18:22:41.079Z,101749.64
2022-12-23T18:24:59.070Z,101749.91
2022-12-23T18:27:18.361Z,101742.66
2022-12-23T18:29:32.120Z,101743.85
2022-12-23T18:31:51.462Z,101743.48
2022-12-23T18:34:05.719Z,101733.88
2022-12-23T18:36:26.638Z,101736.99
2022-12-23T18:38:39.846Z,101752.25
2022-12-23T18:40:55.290Z,101748.19
2022-12-23T18:43:10.121Z,101750.45
2022-12-23T18:45:35.374Z,101747.88
2022-12-23T18:47:48.509Z,101746.98
2022-12-23T18:50:01.518Z,101749.09
2022-12-23T18:52:17.923Z,101741.03
2022-12-23T18:54:32.089Z,101735.42
2022-12-23T18:56:46.332Z,101732.52
2022-12-23T18:58:59.580Z,101729.63
2022-12-23T19:01:16.799Z,101728.15
2022-12-23T19:03:31.809Z,101720.75
2022-12-23T19:05:44.880Z,101741.59
2022-12-23T19:07:59.334Z,101743.45
2022-12-23T19:10:17.592Z,101742.15
2022-12-23T19:12:32.799Z,101741.94
2022-12-23T19:14:46.784Z,101732.67
2022-12-23T19:17:02.915Z,101742.95
2022-12-23T19:19:17.394Z,101746.91
2022-12-23T19:21:31.028Z,101745.70
2022-12-23T19:23:45.348Z,101739.66
2022-12-23T19:25:58.415Z,101739.17
2022-12-23T19:28:12.729Z,101733.46
2022-12-23T19:30:25.876Z,101718.08
2022-12-23T19:32:40.213Z,101723.67
2022-12-23T19:34:53.611Z,101727.98
2022-12-23T19:37:07.393Z,101738.45
2022-12-23T19:39:23.016Z,101745.72
2022-12-23T19:41:37.184Z,101743.13
2022-12-23T19:43:51.866Z,101738.30
2022-12-23T19:46:07.410Z,101733.52
2022-12-23T19:48:21.062Z,101743.19
2022-12-23T19:50:35.460Z,101737.69
2022-12-23T19:52:49.283Z,101729.42
2022-12-23T19:55:02.259Z,101730.84
2022-12-23T19:57:15.421Z,101730.62
2022-12-23T19:59:28.443Z,101720.33
2022-12-23T20:01:42.300Z,101715.89
2022-12-23T20:03:56.168Z,101713.88
2022-12-23T20:06:11.301Z,101718.18
2022-12-23T20:08:25.250Z,101730.83
2022-12-23T20:10:38.425Z,101737.84
2022-12-23T20:12:54.317Z,101750.31
2022-12-23T20:15:08.080Z,101745.73
2022-12-23T20:17:21.075Z,101748.41
2022-12-23T20:19:35.423Z,101749.64
2022-12-23T20:21:51.205Z,101742.52
2022-12-23T20:24:04.262Z,101734.98
2022-12-23T20:26:19.717Z,101732.89
2022-12-23T20:28:33.409Z,101729.50
2022-12-23T20:30:46.386Z,101737.35
2022-12-23T20:33:00.370Z,101734.92
2022-12-23T20:35:14.384Z,101726.27
2022-12-23T20:37:28.694Z,101715.94
2022-12-23T20:39:42.106Z,101719.40
2022-12-23T20:41:58.429Z,101715.84
2022-12-23T20:46:45.789Z,101724.23
2022-12-23T20:48:59.755Z,101729.31
2022-12-23T20:51:16.826Z,101729.29
2022-12-23T20:53:31.049Z,101716.59
2022-12-23T20:55:44.894Z,101715.92
2022-12-23T20:57:58.412Z,101722.71
2022-12-23T21:00:17.814Z,101727.60
2022-12-23T21:02:31.758Z,101729.63
2022-12-23T21:04:45.779Z,101730.37
2022-12-23T21:06:59.724Z,101731.40
2022-12-23T21:09:15.712Z,101712.11
2022-12-23T21:11:30.348Z,101709.90
2022-12-23T21:13:43.381Z,101707.33
2022-12-23T21:16:02.976Z,101711.30
2022-12-23T21:18:16.379Z,101707.75
2022-12-23T21:20:29.920Z,101709.67
2022-12-23T21:22:42.347Z,101708.62
2022-12-23T21:24:54.706Z,101706.55
2022-12-23T21:27:08.457Z,101714.23
2022-12-23T21:29:21.075Z,101714.14
2022-12-23T21:31:36.340Z,101730.77
2022-12-23T21:33:50.695Z,101725.70
2022-12-23T21:36:03.969Z,101728.11
2022-12-23T21:38:17.755Z,101729.02
2022-12-23T21:40:31.809Z,101738.71
2022-12-23T21:42:46.050Z,101746.88
2022-12-23T21:45:00.171Z,101751.69
2022-12-23T21:47:12.784Z,101763.38
2022-12-23T21:49:26.230Z,101763.65
2022-12-23T21:51:41.538Z,101762.05
2022-12-23T21:53:56.664Z,101756.55
2022-12-23T21:56:13.442Z,101753.17
2022-12-23T21:58:27.666Z,101750.45
2022-12-23T22:00:40.936Z,101745.92
2022-12-23T22:02:53.964Z,101747.67
2022-12-23T22:05:08.140Z,101750.33
2022-12-23T22:07:20.805Z,101751.83
2022-12-23T22:09:35.057Z,101745.88
2022-12-23T22:11:48.376Z,101744.70
2022-12-23T22:14:02.589Z,101751.52
2022-12-23T22:16:18.386Z,101757.23
2022-12-23T22:18:31.149Z,101761.31
2022-12-23T22:20:46.563Z,101766.77
2022-12-23T22:23:00.768Z,101768.34
2022-12-23T22:25:15.213Z,101775.42
2022-12-23T22:27:29.309Z,101772.35
2022-12-23T22:29:43.187Z,101771.09
2022-12-23T22:31:57.840Z,101769.98
2022-12-23T22:34:14.632Z,101771.63
2022-12-23T22:36:27.925Z,101777.93
2022-12-23T22:38:41.451Z,101784.87
2022-12-23T22:40:59.438Z,101777.12
2022-12-23T22:43:13.370Z,101781.25
2022-12-23T22:45:26.597Z,101787.85
2022-12-23T22:47:40.064Z,101787.47
2022-12-23T22:49:54.125Z,101777.40
2022-12-23T22:52:07.835Z,101785.75
2022-12-23T22:54:21.663Z,101779.13
2022-12-23T22:56:35.783Z,101788.85
2022-12-23T22:58:49.988Z,101789.36
2022-12-23T23:01:04.707Z,101807.27
2022-12-23T23:03:19.342Z,101797.34
2022-12-23T23:05:33.590Z,101794.79
2022-12-23T23:07:47.314Z,101797.73
2022-12-23T23:10:00.804Z,101818.73
2022-12-23T23:12:14.941Z,101824.96
2022-12-23T23:14:28.849Z,101825.34
2022-12-23T23:16:42.206Z,101814.67
2022-12-23T23:18:56.400Z,101808.45
2022-12-23T23:21:10.300Z,101812.41
2022-12-23T23:23:24.656Z,101814.14
2022-12-23T23:25:38.744Z,101827.10
2022-12-23T23:27:52.559Z,101835.20
2022-12-23T23:30:05.594Z,101832.16
2022-12-23T23:32:18.796Z,101839.94
2022-12-23T23:34:31.838Z,101837.16
2022-12-23T23:36:45.321Z,101832.30
2022-12-23T23:38:59.649Z,101836.33
2022-12-23T23:41:20.626Z,101836.55
2022-12-23T23:43:36.971Z,101839.02
2022-12-23T23:45:51.104Z,101841.05
2022-12-23T23:48:05.039Z,101848.44
2022-12-23T23:50:18.846Z,101837.57
2022-12-23T23:52:32.804Z,101842.98
2022-12-23T23:54:47.389Z,101840.56
2022-12-23T23:57:00.757Z,101852.48
2022-12-23T23:59:14.100Z,101859.50
